ZPPP/KMG METAR and TAF weather

Enter ICAO airport designator
Station Type Date Time Source
ZPPP METAR 2021/02/27 09:00 UTC NOAA

ZPPP 270900Z 22008MPS 9999 SCT023 BKN040 16/04 Q1013 NOSIG


Station Type Date Time Source
ZPPP Decoded METAR 2021/02/27 09:00 UTC NOAA

Kunming, China (ZPPP) 25-01N 102-41E 1892M
Feb 27, 2021 - 04:00 AM EST / 2021.02.27 0900 UTC
Wind: from the SW (220 degrees) at 18 MPH (16 KT):0
Visibility: greater than 7 mile(s):0
Sky conditions: mostly cloudy
Temperature: 60 F (16 C)
Dew Point: 39 F (4 C)
Relative Humidity: 44%
Pressure (altimeter): 29.91 in. Hg (1013 hPa)
ob: ZPPP 270900Z 22008MPS 9999 SCT023 BKN040 16/04 Q1013 NOSIG
cycle: 9

Station Type Date Time Source
ZPPP TAF 2021/02/27 06:04 UTC NOAA

TAF ZPPP 270309Z 2706/2806 22010G16MPS 9999 FEW026 TX18/2708Z TN07/2723Z
BECMG 2710/2711 22005MPS

Example: see airport list